CYNA

Natashquan Airport

Natashquan, Quebec, Canada
METAR CYNA 201228Z AUTO 08014KT 1SM -SN OVC011 M13/M15 A2950 RMK PRESFR SLP991
Observed Flight Rules
Jan-20 @ 12:28 UTC (34 minutes ago) Instrument Flight Rules
Wind Visibility Clouds Conditions
80° at 14 knots 1 miles
  • Overcast at 1,100' AGL
  • Light Snow
Temperatures Readings
Current -13°C / 9°F
Dewpoint -15°C / 5°F
Humidity 85%
Altimeter 29.5" Hg
Pressure 999.1 hPa
Elevation 11
METAR CYNA 201228Z AUTO 08014KT 1SM -SN OVC011 M13/M15 A2950 RMK PRESFR SLP991
Observed Flight Rules
Jan-20 @ 12:28 UTC
(34 minutes ago)
IFR
Wind Visibility
80° at 14 knots 1 miles
Clouds
  • Overcast at 1,100' AGL
Conditions
  • Light Snow
Temperature Dewpoint
-13°C / 9°F -15°C / 5°F
Humidity Altimeter Pressure
85% 29.5" Hg 999.1 hPa